sensor_id;sensor_type;location;lat;lon;timestamp;pressure;altitude;pressure_sealevel;temperature;humidity
2841;BME280;53423;49.224;12.074;2023-06-24T00:00:57;98598.81;;;17.19;67.92
2841;BME280;53423;49.224;12.074;2023-06-24T00:03:27;98597.19;;;17.18;67.52
2841;BME280;53423;49.224;12.074;2023-06-24T00:05:55;98586.59;;;17.18;68.32
2841;BME280;53423;49.224;12.074;2023-06-24T00:08:23;98586.94;;;17.15;67.94
2841;BME280;53423;49.224;12.074;2023-06-24T00:11:01;98582.38;;;17.09;68.32
2841;BME280;53423;49.224;12.074;2023-06-24T00:13:29;98591.16;;;17.10;67.76
2841;BME280;53423;49.224;12.074;2023-06-24T00:15:57;98592.44;;;17.14;67.98
2841;BME280;53423;49.224;12.074;2023-06-24T00:18:26;98592.53;;;17.06;69.22
2841;BME280;53423;49.224;12.074;2023-06-24T00:20:56;98583.03;;;17.11;68.14
2841;BME280;53423;49.224;12.074;2023-06-24T00:23:24;98581.81;;;17.14;68.63
2841;BME280;53423;49.224;12.074;2023-06-24T00:25:52;98583.66;;;16.99;68.87
2841;BME280;53423;49.224;12.074;2023-06-24T00:28:21;98582.94;;;17.05;68.08
2841;BME280;53423;49.224;12.074;2023-06-24T00:30:49;98578.09;;;17.08;68.00
2841;BME280;53423;49.224;12.074;2023-06-24T00:33:17;98586.13;;;17.00;68.54
2841;BME280;53423;49.224;12.074;2023-06-24T00:35:47;98582.31;;;17.03;67.85
2841;BME280;53423;49.224;12.074;2023-06-24T00:38:15;98583.47;;;17.00;67.68
2841;BME280;53423;49.224;12.074;2023-06-24T00:40:43;98579.28;;;17.06;67.60
2841;BME280;53423;49.224;12.074;2023-06-24T00:43:12;98583.94;;;17.04;67.58
2841;BME280;53423;49.224;12.074;2023-06-24T00:45:41;98571.06;;;17.01;68.49
2841;BME280;53423;49.224;12.074;2023-06-24T00:48:09;98579.19;;;16.99;67.97
2841;BME280;53423;49.224;12.074;2023-06-24T00:50:37;98575.78;;;17.05;68.94
2841;BME280;53423;49.224;12.074;2023-06-24T00:53:10;98573.16;;;16.91;69.07
2841;BME280;53423;49.224;12.074;2023-06-24T00:55:38;98566.78;;;17.00;68.91
2841;BME280;53423;49.224;12.074;2023-06-24T00:58:06;98568.78;;;16.98;68.29
2841;BME280;53423;49.224;12.074;2023-06-24T01:00:35;98562.00;;;16.95;69.03
2841;BME280;53423;49.224;12.074;2023-06-24T01:03:04;98560.56;;;16.78;68.84
2841;BME280;53423;49.224;12.074;2023-06-24T01:05:32;98557.91;;;16.93;68.63
2841;BME280;53423;49.224;12.074;2023-06-24T01:08:04;98557.53;;;16.96;69.28
2841;BME280;53423;49.224;12.074;2023-06-24T01:10:33;98562.00;;;16.95;68.54
2841;BME280;53423;49.224;12.074;2023-06-24T01:13:01;98562.94;;;16.88;69.81
2841;BME280;53423;49.224;12.074;2023-06-24T01:15:29;98555.53;;;16.83;68.75
2841;BME280;53423;49.224;12.074;2023-06-24T01:18:02;98562.47;;;16.84;69.16
2841;BME280;53423;49.224;12.074;2023-06-24T01:20:36;98555.25;;;16.93;69.27
2841;BME280;53423;49.224;12.074;2023-06-24T01:23:24;98555.69;;;16.82;69.99
2841;BME280;53423;49.224;12.074;2023-06-24T01:26:22;98542.19;;;16.77;70.35
2841;BME280;53423;49.224;12.074;2023-06-24T01:29:41;98542.03;;;16.78;69.74
2841;BME280;53423;49.224;12.074;2023-06-24T01:32:19;98536.34;;;16.81;69.59
2841;BME280;53423;49.224;12.074;2023-06-24T01:34:55;98539.19;;;16.80;69.62
2841;BME280;53423;49.224;12.074;2023-06-24T01:37:28;98535.34;;;16.82;69.64
2841;BME280;53423;49.224;12.074;2023-06-24T01:40:04;98542.38;;;16.90;70.29
2841;BME280;53423;49.224;12.074;2023-06-24T01:42:39;98546.41;;;16.86;70.05
2841;BME280;53423;49.224;12.074;2023-06-24T01:45:12;98551.97;;;16.91;69.27
2841;BME280;53423;49.224;12.074;2023-06-24T01:47:44;98544.09;;;16.97;69.29
2841;BME280;53423;49.224;12.074;2023-06-24T01:50:14;98530.03;;;16.97;69.33
2841;BME280;53423;49.224;12.074;2023-06-24T01:52:45;98537.38;;;16.95;69.34
2841;BME280;53423;49.224;12.074;2023-06-24T01:55:16;98536.06;;;16.91;69.84
2841;BME280;53423;49.224;12.074;2023-06-24T01:57:48;98525.19;;;17.00;69.94
2841;BME280;53423;49.224;12.074;2023-06-24T02:00:17;98526.47;;;17.04;69.08
2841;BME280;53423;49.224;12.074;2023-06-24T02:02:47;98517.72;;;16.89;69.58
2841;BME280;53423;49.224;12.074;2023-06-24T02:05:18;98522.91;;;16.97;68.95
2841;BME280;53423;49.224;12.074;2023-06-24T02:07:48;98520.34;;;17.04;69.63
2841;BME280;53423;49.224;12.074;2023-06-24T02:10:17;98518.34;;;17.06;69.11
2841;BME280;53423;49.224;12.074;2023-06-24T02:12:48;98518.81;;;17.09;69.28
2841;BME280;53423;49.224;12.074;2023-06-24T02:15:18;98521.72;;;17.14;68.94
2841;BME280;53423;49.224;12.074;2023-06-24T02:17:50;98525.84;;;17.17;68.87
2841;BME280;53423;49.224;12.074;2023-06-24T02:20:19;98533.94;;;17.15;68.85
2841;BME280;53423;49.224;12.074;2023-06-24T02:22:48;98536.69;;;17.07;69.16
2841;BME280;53423;49.224;12.074;2023-06-24T02:25:16;98518.91;;;17.01;69.04
2841;BME280;53423;49.224;12.074;2023-06-24T02:27:45;98534.25;;;17.06;69.28
2841;BME280;53423;49.224;12.074;2023-06-24T02:30:14;98530.41;;;17.08;69.17
2841;BME280;53423;49.224;12.074;2023-06-24T02:32:43;98527.84;;;17.15;69.11
2841;BME280;53423;49.224;12.074;2023-06-24T02:35:13;98528.03;;;17.13;69.61
2841;BME280;53423;49.224;12.074;2023-06-24T02:37:40;98526.94;;;17.08;68.92
2841;BME280;53423;49.224;12.074;2023-06-24T02:40:09;98533.78;;;17.17;69.20
2841;BME280;53423;49.224;12.074;2023-06-24T02:42:37;98536.06;;;17.20;68.63
2841;BME280;53423;49.224;12.074;2023-06-24T02:45:06;98532.31;;;17.14;69.86
2841;BME280;53423;49.224;12.074;2023-06-24T02:47:35;98533.59;;;17.18;69.29
2841;BME280;53423;49.224;12.074;2023-06-24T02:50:05;98532.50;;;17.13;70.36
2841;BME280;53423;49.224;12.074;2023-06-24T02:52:36;98540.91;;;17.16;69.60
2841;BME280;53423;49.224;12.074;2023-06-24T02:55:06;98544.66;;;17.07;69.59
2841;BME280;53423;49.224;12.074;2023-06-24T02:57:35;98552.22;;;17.10;69.95
2841;BME280;53423;49.224;12.074;2023-06-24T03:00:04;98550.03;;;17.14;70.31
2841;BME280;53423;49.224;12.074;2023-06-24T03:02:35;98559.81;;;17.13;69.04
2841;BME280;53423;49.224;12.074;2023-06-24T03:05:04;98562.28;;;17.15;70.37
2841;BME280;53423;49.224;12.074;2023-06-24T03:07:35;98562.94;;;17.17;70.29
2841;BME280;53423;49.224;12.074;2023-06-24T03:10:04;98563.72;;;17.17;69.93
2841;BME280;53423;49.224;12.074;2023-06-24T03:12:32;98573.88;;;17.14;69.71
2841;BME280;53423;49.224;12.074;2023-06-24T03:15:00;98576.06;;;17.10;70.20
2841;BME280;53423;49.224;12.074;2023-06-24T03:17:29;98585.69;;;17.11;70.60
2841;BME280;53423;49.224;12.074;2023-06-24T03:19:57;98582.38;;;17.09;70.92
2841;BME280;53423;49.224;12.074;2023-06-24T03:22:25;98580.91;;;17.07;70.84
2841;BME280;53423;49.224;12.074;2023-06-24T03:24:54;98589.69;;;17.07;70.62
2841;BME280;53423;49.224;12.074;2023-06-24T03:27:22;98591.69;;;17.05;70.67
2841;BME280;53423;49.224;12.074;2023-06-24T03:29:50;98599.44;;;17.07;70.30
2841;BME280;53423;49.224;12.074;2023-06-24T03:32:18;98600.66;;;17.04;70.44
2841;BME280;53423;49.224;12.074;2023-06-24T03:34:46;98605.41;;;17.09;71.10
2841;BME280;53423;49.224;12.074;2023-06-24T03:37:14;98610.16;;;16.99;71.11
2841;BME280;53423;49.224;12.074;2023-06-24T03:39:42;98604.31;;;17.03;70.60
2841;BME280;53423;49.224;12.074;2023-06-24T03:42:11;98603.59;;;17.09;70.74
2841;BME280;53423;49.224;12.074;2023-06-24T03:44:39;98614.81;;;17.11;70.47
2841;BME280;53423;49.224;12.074;2023-06-24T03:47:07;98616.47;;;17.12;70.29
2841;BME280;53423;49.224;12.074;2023-06-24T03:49:35;98619.75;;;17.14;70.22
2841;BME280;53423;49.224;12.074;2023-06-24T03:52:04;98620.78;;;17.13;70.26
2841;BME280;53423;49.224;12.074;2023-06-24T03:54:35;98632.25;;;17.06;70.82
2841;BME280;53423;49.224;12.074;2023-06-24T03:57:04;98634.53;;;17.09;71.58
2841;BME280;53423;49.224;12.074;2023-06-24T03:59:34;98639.47;;;17.12;71.28
2841;BME280;53423;49.224;12.074;2023-06-24T04:02:02;98632.44;;;17.19;70.79
2841;BME280;53423;49.224;12.074;2023-06-24T04:04:34;98631.09;;;17.23;70.25
2841;BME280;53423;49.224;12.074;2023-06-24T04:07:03;98636.00;;;17.26;70.26
2841;BME280;53423;49.224;12.074;2023-06-24T04:09:33;98638.41;;;17.21;71.23
2841;BME280;53423;49.224;12.074;2023-06-24T04:12:02;98627.88;;;17.27;70.96
2841;BME280;53423;49.224;12.074;2023-06-24T04:14:30;98639.78;;;17.31;71.24
2841;BME280;53423;49.224;12.074;2023-06-24T04:16:59;98634.28;;;17.33;71.24
2841;BME280;53423;49.224;12.074;2023-06-24T04:19:28;98629.63;;;17.35;71.51
2841;BME280;53423;49.224;12.074;2023-06-24T04:21:56;98632.00;;;17.45;71.25
2841;BME280;53423;49.224;12.074;2023-06-24T04:24:24;98636.16;;;17.47;70.32
2841;BME280;53423;49.224;12.074;2023-06-24T04:26:52;98636.22;;;17.54;70.56
2841;BME280;53423;49.224;12.074;2023-06-24T04:29:19;98641.34;;;17.55;70.50
2841;BME280;53423;49.224;12.074;2023-06-24T04:31:47;98638.97;;;17.60;70.83
2841;BME280;53423;49.224;12.074;2023-06-24T04:34:17;98634.75;;;17.66;70.66
2841;BME280;53423;49.224;12.074;2023-06-24T04:36:45;98639.22;;;17.65;70.43
2841;BME280;53423;49.224;12.074;2023-06-24T04:39:13;98642.53;;;17.67;70.35
2841;BME280;53423;49.224;12.074;2023-06-24T04:41:41;98644.34;;;17.67;70.48
2841;BME280;53423;49.224;12.074;2023-06-24T04:44:08;98653.22;;;17.74;69.96
2841;BME280;53423;49.224;12.074;2023-06-24T04:46:36;98648.53;;;17.76;70.57
2841;BME280;53423;49.224;12.074;2023-06-24T04:49:06;98652.06;;;17.83;69.85
2841;BME280;53423;49.224;12.074;2023-06-24T04:51:36;98650.31;;;17.90;69.75
2841;BME280;53423;49.224;12.074;2023-06-24T04:54:04;98651.88;;;17.99;69.02
2841;BME280;53423;49.224;12.074;2023-06-24T04:56:32;98652.97;;;17.90;69.58
2841;BME280;53423;49.224;12.074;2023-06-24T04:59:01;98660.75;;;17.91;69.10
2841;BME280;53423;49.224;12.074;2023-06-24T05:01:29;98666.31;;;17.96;68.83
2841;BME280;53423;49.224;12.074;2023-06-24T05:03:56;98665.97;;;17.99;68.40
2841;BME280;53423;49.224;12.074;2023-06-24T05:06:25;98670.13;;;18.08;68.15
2841;BME280;53423;49.224;12.074;2023-06-24T05:08:54;98668.19;;;18.17;68.55
2841;BME280;53423;49.224;12.074;2023-06-24T05:11:22;98664.97;;;18.21;68.63
2841;BME280;53423;49.224;12.074;2023-06-24T05:13:50;98665.28;;;18.33;67.75
2841;BME280;53423;49.224;12.074;2023-06-24T05:16:18;98669.59;;;18.34;68.09
2841;BME280;53423;49.224;12.074;2023-06-24T05:18:46;98668.78;;;18.33;67.42
2841;BME280;53423;49.224;12.074;2023-06-24T05:21:14;98668.13;;;18.46;67.22
2841;BME280;53423;49.224;12.074;2023-06-24T05:23:42;98665.34;;;18.54;66.97
2841;BME280;53423;49.224;12.074;2023-06-24T05:26:11;98673.16;;;18.62;65.68
2841;BME280;53423;49.224;12.074;2023-06-24T05:28:39;98670.94;;;18.66;65.91
2841;BME280;53423;49.224;12.074;2023-06-24T05:31:07;98666.91;;;18.70;65.47
2841;BME280;53423;49.224;12.074;2023-06-24T05:33:35;98675.19;;;18.81;65.52
2841;BME280;53423;49.224;12.074;2023-06-24T05:36:03;98679.97;;;18.92;64.98
2841;BME280;53423;49.224;12.074;2023-06-24T05:38:31;98687.22;;;19.05;64.09
2841;BME280;53423;49.224;12.074;2023-06-24T05:40:58;98688.34;;;19.17;63.24
2841;BME280;53423;49.224;12.074;2023-06-24T05:43:30;98682.25;;;19.23;63.46
2841;BME280;53423;49.224;12.074;2023-06-24T05:45:58;98685.69;;;19.44;62.72
2841;BME280;53423;49.224;12.074;2023-06-24T05:48:27;98681.84;;;19.53;62.26
2841;BME280;53423;49.224;12.074;2023-06-24T05:50:55;98684.38;;;19.68;61.47
2841;BME280;53423;49.224;12.074;2023-06-24T05:53:23;98684.44;;;19.81;61.23
2841;BME280;53423;49.224;12.074;2023-06-24T05:55:51;98683.28;;;19.97;60.55
2841;BME280;53423;49.224;12.074;2023-06-24T05:58:19;98678.25;;;20.21;60.34
2841;BME280;53423;49.224;12.074;2023-06-24T06:00:48;98677.69;;;20.32;60.04
2841;BME280;53423;49.224;12.074;2023-06-24T06:03:16;98680.00;;;20.61;59.50
2841;BME280;53423;49.224;12.074;2023-06-24T06:05:44;98682.25;;;20.90;58.59
2841;BME280;53423;49.224;12.074;2023-06-24T06:08:12;98681.06;;;21.00;57.29
2841;BME280;53423;49.224;12.074;2023-06-24T06:10:40;98682.25;;;21.36;56.21
2841;BME280;53423;49.224;12.074;2023-06-24T06:13:08;98667.25;;;21.48;55.37
2841;BME280;53423;49.224;12.074;2023-06-24T06:15:36;98673.31;;;21.81;53.73
2841;BME280;53423;49.224;12.074;2023-06-24T06:18:05;98673.22;;;22.07;53.76
2841;BME280;53423;49.224;12.074;2023-06-24T06:20:33;98673.00;;;22.09;53.80
2841;BME280;53423;49.224;12.074;2023-06-24T06:23:01;98670.72;;;22.12;53.39
2841;BME280;53423;49.224;12.074;2023-06-24T06:25:29;98667.97;;;22.26;53.18
2841;BME280;53423;49.224;12.074;2023-06-24T06:27:57;98675.22;;;22.18;53.94
2841;BME280;53423;49.224;12.074;2023-06-24T06:30:25;98680.75;;;22.55;52.69
2841;BME280;53423;49.224;12.074;2023-06-24T06:32:53;98675.44;;;22.48;52.74
2841;BME280;53423;49.224;12.074;2023-06-24T06:35:23;98667.00;;;22.58;52.30
2841;BME280;53423;49.224;12.074;2023-06-24T06:37:51;98672.00;;;22.97;50.55
2841;BME280;53423;49.224;12.074;2023-06-24T06:40:23;98677.59;;;23.20;50.24
2841;BME280;53423;49.224;12.074;2023-06-24T06:42:51;98665.66;;;23.41;48.59
2841;BME280;53423;49.224;12.074;2023-06-24T06:45:19;98660.63;;;23.51;49.06
2841;BME280;53423;49.224;12.074;2023-06-24T06:47:47;98665.97;;;23.51;49.54
2841;BME280;53423;49.224;12.074;2023-06-24T06:50:15;98664.28;;;23.92;48.93
2841;BME280;53423;49.224;12.074;2023-06-24T06:52:45;98665.28;;;24.09;47.88
2841;BME280;53423;49.224;12.074;2023-06-24T06:55:12;98668.38;;;24.24;47.87
2841;BME280;53423;49.224;12.074;2023-06-24T06:57:40;98660.75;;;24.39;47.66
2841;BME280;53423;49.224;12.074;2023-06-24T07:00:09;98664.47;;;24.68;46.48
2841;BME280;53423;49.224;12.074;2023-06-24T07:02:37;98660.00;;;25.03;45.80
2841;BME280;53423;49.224;12.074;2023-06-24T07:05:05;98654.03;;;25.01;45.37
2841;BME280;53423;49.224;12.074;2023-06-24T07:07:34;98660.00;;;25.03;44.71
2841;BME280;53423;49.224;12.074;2023-06-24T07:10:03;98654.97;;;25.07;45.32
2841;BME280;53423;49.224;12.074;2023-06-24T07:12:31;98649.72;;;25.35;44.96
2841;BME280;53423;49.224;12.074;2023-06-24T07:14:59;98649.00;;;25.62;44.60
2841;BME280;53423;49.224;12.074;2023-06-24T07:17:27;98653.47;;;25.45;44.63
2841;BME280;53423;49.224;12.074;2023-06-24T07:19:55;98653.56;;;25.73;43.53
2841;BME280;53423;49.224;12.074;2023-06-24T07:22:23;98659.63;;;25.81;43.85
2841;BME280;53423;49.224;12.074;2023-06-24T07:24:51;98654.75;;;25.43;44.22
2841;BME280;53423;49.224;12.074;2023-06-24T07:27:20;98641.00;;;25.39;43.52
2841;BME280;53423;49.224;12.074;2023-06-24T07:29:48;98644.34;;;25.12;43.61
2841;BME280;53423;49.224;12.074;2023-06-24T07:32:16;98645.75;;;25.14;44.00
2841;BME280;53423;49.224;12.074;2023-06-24T08:50:50;98612.69;;;26.89;37.91
2841;BME280;53423;49.224;12.074;2023-06-24T08:53:20;98618.78;;;27.77;36.66
2841;BME280;53423;49.224;12.074;2023-06-24T08:55:49;98610.47;;;28.27;34.03
2841;BME280;53423;49.224;12.074;2023-06-24T08:58:21;98613.88;;;28.71;33.06
2841;BME280;53423;49.224;12.074;2023-06-24T09:00:49;98614.09;;;29.01;33.55
2841;BME280;53423;49.224;12.074;2023-06-24T09:03:17;98613.56;;;29.41;33.08
2841;BME280;53423;49.224;12.074;2023-06-24T09:05:46;98608.56;;;29.17;31.87
2841;BME280;53423;49.224;12.074;2023-06-24T09:08:15;98605.94;;;28.91;32.05
2841;BME280;53423;49.224;12.074;2023-06-24T09:10:43;98611.81;;;28.83;32.06
2841;BME280;53423;49.224;12.074;2023-06-24T09:13:11;98615.00;;;28.48;33.29
2841;BME280;53423;49.224;12.074;2023-06-24T09:15:39;98617.34;;;28.66;33.56
2841;BME280;53423;49.224;12.074;2023-06-24T09:18:07;98609.47;;;27.63;34.07
2841;BME280;53423;49.224;12.074;2023-06-24T09:20:41;98614.22;;;27.35;34.68
2841;BME280;53423;49.224;12.074;2023-06-24T09:23:13;98616.41;;;27.38;35.69
2841;BME280;53423;49.224;12.074;2023-06-24T09:25:41;98615.03;;;27.57;35.03
2841;BME280;53423;49.224;12.074;2023-06-24T09:28:09;98600.16;;;28.19;33.51
2841;BME280;53423;49.224;12.074;2023-06-24T09:30:37;98603.41;;;29.11;31.52
2841;BME280;53423;49.224;12.074;2023-06-24T09:33:05;98600.88;;;30.03;31.47
2841;BME280;53423;49.224;12.074;2023-06-24T09:35:35;98594.06;;;29.85;29.01
2841;BME280;53423;49.224;12.074;2023-06-24T09:38:03;98596.56;;;29.40;30.63
2841;BME280;53423;49.224;12.074;2023-06-24T09:40:34;98592.88;;;28.78;30.97
2841;BME280;53423;49.224;12.074;2023-06-24T09:43:02;98601.44;;;27.68;32.39
2841;BME280;53423;49.224;12.074;2023-06-24T09:45:30;98598.13;;;27.23;33.78
2841;BME280;53423;49.224;12.074;2023-06-24T09:47:59;98603.63;;;26.78;34.92
2841;BME280;53423;49.224;12.074;2023-06-24T09:50:27;98599.59;;;27.90;32.98
2841;BME280;53423;49.224;12.074;2023-06-24T09:52:57;98589.25;;;29.46;30.76
2841;BME280;53423;49.224;12.074;2023-06-24T09:55:27;98579.59;;;30.67;28.84
2841;BME280;53423;49.224;12.074;2023-06-24T09:57:57;98590.03;;;31.64;27.51
2841;BME280;53423;49.224;12.074;2023-06-24T10:00:25;98582.34;;;32.68;25.70
2841;BME280;53423;49.224;12.074;2023-06-24T10:02:53;98577.84;;;32.53;25.43
2841;BME280;53423;49.224;12.074;2023-06-24T10:05:25;98584.16;;;31.36;26.91
2841;BME280;53423;49.224;12.074;2023-06-24T10:07:53;98575.47;;;30.09;27.85
2841;BME280;53423;49.224;12.074;2023-06-24T10:10:21;98579.53;;;28.98;28.58
2841;BME280;53423;49.224;12.074;2023-06-24T10:12:49;98576.81;;;28.98;29.49
2841;BME280;53423;49.224;12.074;2023-06-24T10:15:18;98569.97;;;29.74;28.74
2841;BME280;53423;49.224;12.074;2023-06-24T10:17:46;98561.63;;;29.90;28.67
2841;BME280;53423;49.224;12.074;2023-06-24T10:20:23;98557.06;;;30.21;27.07
2841;BME280;53423;49.224;12.074;2023-06-24T10:22:52;98555.22;;;30.67;27.62
2841;BME280;53423;49.224;12.074;2023-06-24T10:25:21;98551.16;;;30.24;27.97
2841;BME280;53423;49.224;12.074;2023-06-24T10:27:53;98563.53;;;28.86;29.06
2841;BME280;53423;49.224;12.074;2023-06-24T10:30:23;98565.28;;;28.13;29.39
2841;BME280;53423;49.224;12.074;2023-06-24T10:32:54;98554.94;;;28.58;29.40
2841;BME280;53423;49.224;12.074;2023-06-24T10:35:23;98547.66;;;29.42;29.46
2841;BME280;53423;49.224;12.074;2023-06-24T10:37:56;98541.91;;;30.10;28.11
2841;BME280;53423;49.224;12.074;2023-06-24T10:40:37;98534.88;;;30.09;28.54
2841;BME280;53423;49.224;12.074;2023-06-24T10:43:25;98541.13;;;30.70;28.11
2841;BME280;53423;49.224;12.074;2023-06-24T10:45:56;98529.78;;;30.32;26.66
2841;BME280;53423;49.224;12.074;2023-06-24T10:48:24;98536.41;;;29.70;26.87
2841;BME280;53423;49.224;12.074;2023-06-24T10:50:52;98526.94;;;29.67;27.97
2841;BME280;53423;49.224;12.074;2023-06-24T10:53:21;98524.53;;;29.81;27.58
2841;BME280;53423;49.224;12.074;2023-06-24T10:55:49;98516.25;;;30.37;27.46
2841;BME280;53423;49.224;12.074;2023-06-24T10:58:17;98510.53;;;30.84;26.67
2841;BME280;53423;49.224;12.074;2023-06-24T11:00:45;98505.16;;;30.44;27.60
2841;BME280;53423;49.224;12.074;2023-06-24T11:03:16;98508.09;;;30.12;28.39
2841;BME280;53423;49.224;12.074;2023-06-24T11:05:45;98506.03;;;29.53;28.15
2841;BME280;53423;49.224;12.074;2023-06-24T11:08:13;98497.44;;;29.04;27.19
2841;BME280;53423;49.224;12.074;2023-06-24T11:10:43;98503.84;;;28.88;29.29
2841;BME280;53423;49.224;12.074;2023-06-24T11:13:12;98492.56;;;29.63;27.10
2841;BME280;53423;49.224;12.074;2023-06-24T11:15:40;98498.34;;;30.72;26.19
2841;BME280;53423;49.224;12.074;2023-06-24T11:18:09;98485.75;;;31.26;24.53
2841;BME280;53423;49.224;12.074;2023-06-24T11:20:39;98481.88;;;30.23;26.61
2841;BME280;53423;49.224;12.074;2023-06-24T11:23:08;98480.56;;;29.34;28.25
2841;BME280;53423;49.224;12.074;2023-06-24T11:25:39;98479.06;;;28.54;29.49
2841;BME280;53423;49.224;12.074;2023-06-24T11:28:16;98478.53;;;28.21;29.75
2841;BME280;53423;49.224;12.074;2023-06-24T11:30:48;98476.13;;;29.84;28.30
2841;BME280;53423;49.224;12.074;2023-06-24T11:33:26;98473.41;;;30.75;25.90
2841;BME280;53423;49.224;12.074;2023-06-24T11:35:56;98470.59;;;31.79;24.78
2841;BME280;53423;49.224;12.074;2023-06-24T11:38:24;98466.38;;;32.01;23.36
2841;BME280;53423;49.224;12.074;2023-06-24T11:40:58;98462.22;;;32.47;23.09
2841;BME280;53423;49.224;12.074;2023-06-24T11:43:26;98447.94;;;33.13;22.26
2841;BME280;53423;49.224;12.074;2023-06-24T11:45:55;98447.19;;;33.49;22.41
2841;BME280;53423;49.224;12.074;2023-06-24T11:48:27;98441.91;;;33.95;21.83
2841;BME280;53423;49.224;12.074;2023-06-24T11:50:56;98443.19;;;33.23;22.45
2841;BME280;53423;49.224;12.074;2023-06-24T11:53:29;98435.75;;;31.52;24.55
2841;BME280;53423;49.224;12.074;2023-06-24T11:55:57;98447.22;;;30.35;25.70
2841;BME280;53423;49.224;12.074;2023-06-24T11:58:25;98442.88;;;29.79;27.60
2841;BME280;53423;49.224;12.074;2023-06-24T12:00:56;98443.19;;;30.27;26.39
2841;BME280;53423;49.224;12.074;2023-06-24T12:03:24;98444.06;;;31.12;24.28
2841;BME280;53423;49.224;12.074;2023-06-24T12:05:52;98435.75;;;31.96;24.26
2841;BME280;53423;49.224;12.074;2023-06-24T12:08:21;98431.06;;;32.63;24.01
2841;BME280;53423;49.224;12.074;2023-06-24T12:10:49;98428.78;;;31.80;24.00
2841;BME280;53423;49.224;12.074;2023-06-24T12:13:17;98425.63;;;32.40;23.81
2841;BME280;53423;49.224;12.074;2023-06-24T12:15:45;98416.97;;;32.85;22.42
2841;BME280;53423;49.224;12.074;2023-06-24T12:18:13;98431.72;;;32.22;23.15
2841;BME280;53423;49.224;12.074;2023-06-24T12:20:41;98434.66;;;32.59;22.60
2841;BME280;53423;49.224;12.074;2023-06-24T12:23:10;98424.66;;;32.78;23.48
2841;BME280;53423;49.224;12.074;2023-06-24T12:25:41;98420.09;;;32.73;22.46
2841;BME280;53423;49.224;12.074;2023-06-24T12:28:09;98412.09;;;33.29;21.76
2841;BME280;53423;49.224;12.074;2023-06-24T12:30:37;98408.75;;;33.14;21.67
2841;BME280;53423;49.224;12.074;2023-06-24T12:33:04;98412.69;;;32.55;21.43
2841;BME280;53423;49.224;12.074;2023-06-24T12:35:35;98407.84;;;32.76;23.00
2841;BME280;53423;49.224;12.074;2023-06-24T12:38:03;98416.16;;;33.69;22.13
2841;BME280;53423;49.224;12.074;2023-06-24T12:40:31;98413.78;;;34.00;21.31
2841;BME280;53423;49.224;12.074;2023-06-24T12:43:01;98406.81;;;33.94;21.32
2841;BME280;53423;49.224;12.074;2023-06-24T12:45:29;98399.16;;;33.21;21.79
2841;BME280;53423;49.224;12.074;2023-06-24T12:47:57;98399.13;;;33.45;21.24
2841;BME280;53423;49.224;12.074;2023-06-24T12:50:27;98400.25;;;33.76;20.49
2841;BME280;53423;49.224;12.074;2023-06-24T12:52:58;98399.34;;;33.48;20.94
2841;BME280;53423;49.224;12.074;2023-06-24T12:55:26;98397.56;;;32.21;20.39
2841;BME280;53423;49.224;12.074;2023-06-24T12:57:54;98396.06;;;32.33;20.89
2841;BME280;53423;49.224;12.074;2023-06-24T13:00:24;98390.16;;;32.78;21.45
2841;BME280;53423;49.224;12.074;2023-06-24T13:02:52;98396.47;;;32.98;20.88
2841;BME280;53423;49.224;12.074;2023-06-24T13:05:20;98397.22;;;32.80;21.49
2841;BME280;53423;49.224;12.074;2023-06-24T13:07:48;98390.31;;;32.40;20.86
2841;BME280;53423;49.224;12.074;2023-06-24T13:10:16;98397.25;;;31.55;23.39
2841;BME280;53423;49.224;12.074;2023-06-24T13:12:44;98403.03;;;30.85;22.99
2841;BME280;53423;49.224;12.074;2023-06-24T13:15:12;98393.34;;;30.49;24.53
2841;BME280;53423;49.224;12.074;2023-06-24T13:17:42;98395.34;;;31.02;23.89
2841;BME280;53423;49.224;12.074;2023-06-24T13:20:11;98384.50;;;31.02;23.25
2841;BME280;53423;49.224;12.074;2023-06-24T13:22:39;98383.78;;;30.86;22.79
2841;BME280;53423;49.224;12.074;2023-06-24T13:25:07;98383.72;;;30.96;22.62
2841;BME280;53423;49.224;12.074;2023-06-24T13:27:35;98372.47;;;31.23;23.56
2841;BME280;53423;49.224;12.074;2023-06-24T13:30:08;98378.09;;;31.41;23.93
2841;BME280;53423;49.224;12.074;2023-06-24T13:32:36;98370.09;;;31.60;23.26
2841;BME280;53423;49.224;12.074;2023-06-24T13:35:06;98375.97;;;31.72;22.43
2841;BME280;53423;49.224;12.074;2023-06-24T13:37:34;98372.63;;;31.46;22.55
2841;BME280;53423;49.224;12.074;2023-06-24T13:40:03;98361.84;;;31.31;22.25
2841;BME280;53423;49.224;12.074;2023-06-24T13:42:31;98365.03;;;31.48;20.87
2841;BME280;53423;49.224;12.074;2023-06-24T13:44:59;98367.81;;;30.85;22.06
2841;BME280;53423;49.224;12.074;2023-06-24T13:47:27;98368.75;;;30.20;21.90
2841;BME280;53423;49.224;12.074;2023-06-24T13:49:55;98369.28;;;29.52;23.00
2841;BME280;53423;49.224;12.074;2023-06-24T13:52:25;98371.25;;;28.84;23.43
2841;BME280;53423;49.224;12.074;2023-06-24T13:54:53;98365.28;;;28.77;24.08
2841;BME280;53423;49.224;12.074;2023-06-24T13:57:21;98364.16;;;29.45;23.48
2841;BME280;53423;49.224;12.074;2023-06-24T13:59:49;98371.22;;;29.96;22.30
2841;BME280;53423;49.224;12.074;2023-06-24T14:02:17;98364.94;;;30.21;22.00
2841;BME280;53423;49.224;12.074;2023-06-24T14:04:46;98357.59;;;30.52;21.74
2841;BME280;53423;49.224;12.074;2023-06-24T14:07:14;98361.66;;;30.54;21.97
2841;BME280;53423;49.224;12.074;2023-06-24T14:09:44;98349.38;;;30.77;22.47
2841;BME280;53423;49.224;12.074;2023-06-24T14:12:12;98348.31;;;30.83;22.13
2841;BME280;53423;49.224;12.074;2023-06-24T14:14:39;98353.94;;;30.96;22.01
2841;BME280;53423;49.224;12.074;2023-06-24T14:17:07;98351.53;;;30.90;22.10
2841;BME280;53423;49.224;12.074;2023-06-24T14:19:38;98347.81;;;30.66;20.90
2841;BME280;53423;49.224;12.074;2023-06-24T14:22:07;98343.47;;;30.65;22.04
2841;BME280;53423;49.224;12.074;2023-06-24T14:24:36;98339.66;;;30.71;22.33
2841;BME280;53423;49.224;12.074;2023-06-24T14:27:07;98343.22;;;30.66;22.89